createdAt,value
2023-01-22T00:01:23.134Z,100241.00
2023-01-22T00:03:52.458Z,100245.00
2023-01-22T00:06:23.596Z,100239.00
2023-01-22T00:08:52.125Z,100244.00
2023-01-22T00:11:22.670Z,100241.00
2023-01-22T00:13:51.365Z,100258.00
2023-01-22T00:16:20.288Z,100256.00
2023-01-22T00:18:48.267Z,100247.00
2023-01-22T00:21:16.116Z,100245.00
2023-01-22T00:23:45.290Z,100243.00
2023-01-22T00:26:16.644Z,100245.00
2023-01-22T00:28:46.137Z,100249.00
2023-01-22T00:31:16.449Z,100244.00
2023-01-22T00:33:45.744Z,100243.00
2023-01-22T00:36:18.024Z,100231.00
2023-01-22T00:38:47.781Z,100246.00
2023-01-22T00:41:17.426Z,100247.00
2023-01-22T00:43:45.362Z,100258.00
2023-01-22T00:46:17.677Z,100248.00
2023-01-22T00:48:46.280Z,100243.00
2023-01-22T00:51:15.537Z,100246.00
2023-01-22T00:53:44.598Z,100250.00
2023-01-22T00:56:15.670Z,100235.00
2023-01-22T00:58:44.416Z,100251.00
2023-01-22T01:01:15.519Z,100247.00
2023-01-22T01:03:43.803Z,100250.00
2023-01-22T01:06:15.803Z,100256.00
2023-01-22T01:08:44.626Z,100265.00
2023-01-22T01:11:18.632Z,100257.00
2023-01-22T01:13:46.795Z,100240.00
2023-01-22T01:16:17.449Z,100250.00
2023-01-22T01:18:46.631Z,100251.00
2023-01-22T01:21:15.424Z,100254.00
2023-01-22T01:23:43.636Z,100254.00
2023-01-22T01:26:15.152Z,100250.00
2023-01-22T01:28:46.225Z,100265.00
2023-01-22T01:31:17.456Z,100272.00
2023-01-22T01:33:46.040Z,100262.00
2023-01-22T01:36:18.296Z,100273.00
2023-01-22T01:38:48.631Z,100267.00
2023-01-22T01:41:20.447Z,100268.00
2023-01-22T01:44:15.806Z,100266.00
2023-01-22T01:46:49.364Z,100272.00
2023-01-22T01:49:28.707Z,100277.00
2023-01-22T01:52:01.973Z,100267.00
2023-01-22T01:54:31.688Z,100274.00
2023-01-22T01:57:09.356Z,100277.00
2023-01-22T01:59:40.110Z,100272.00
2023-01-22T02:02:08.472Z,100278.00
2023-01-22T02:04:36.422Z,100279.00
2023-01-22T02:07:05.462Z,100281.00
2023-01-22T02:09:34.668Z,100268.00
2023-01-22T02:12:03.957Z,100260.00
2023-01-22T02:14:36.067Z,100267.00
2023-01-22T02:17:09.155Z,100270.00
2023-01-22T02:19:37.056Z,100278.00
2023-01-22T02:22:13.896Z,100269.00
2023-01-22T02:24:42.209Z,100270.00
2023-01-22T02:27:10.927Z,100273.00
2023-01-22T02:29:39.491Z,100270.00
2023-01-22T02:32:10.436Z,100288.00
2023-01-22T02:34:39.459Z,100278.00
2023-01-22T02:37:09.807Z,100284.00
2023-01-22T02:39:38.058Z,100271.00
2023-01-22T02:42:09.841Z,100276.00
2023-01-22T02:44:38.714Z,100281.00
2023-01-22T02:47:07.127Z,100274.00
2023-01-22T02:49:35.229Z,100285.00
2023-01-22T02:52:03.113Z,100282.00
2023-01-22T02:54:33.767Z,100290.00
2023-01-22T02:57:01.674Z,100287.00
2023-01-22T02:59:29.714Z,100295.00
2023-01-22T03:01:58.167Z,100289.00
2023-01-22T03:04:28.792Z,100295.00
2023-01-22T03:06:56.717Z,100283.00
2023-01-22T03:09:28.092Z,100301.00
2023-01-22T03:11:57.458Z,100283.00
2023-01-22T03:14:47.372Z,100290.00
2023-01-22T03:17:34.503Z,100291.00
2023-01-22T03:20:19.911Z,100296.00
2023-01-22T03:22:49.018Z,100304.00
2023-01-22T03:25:17.294Z,100298.00
2023-01-22T03:28:02.108Z,100302.00
2023-01-22T03:30:31.140Z,100295.00
2023-01-22T03:32:59.487Z,100294.00
2023-01-22T03:35:27.949Z,100294.00
2023-01-22T03:38:05.752Z,100296.00
2023-01-22T03:40:33.636Z,100296.00
2023-01-22T03:43:03.024Z,100307.00
2023-01-22T03:45:33.356Z,100298.00
2023-01-22T03:48:02.216Z,100324.00
2023-01-22T03:50:35.857Z,100320.00
2023-01-22T03:53:04.873Z,100320.00
2023-01-22T03:55:34.621Z,100309.00
2023-01-22T03:58:05.163Z,100316.00
2023-01-22T04:00:33.046Z,100311.00
2023-01-22T04:03:02.038Z,100323.00
2023-01-22T04:05:35.753Z,100317.00
2023-01-22T04:08:03.660Z,100323.00
2023-01-22T04:10:33.169Z,100320.00
2023-01-22T04:13:04.881Z,100311.00
2023-01-22T04:15:32.852Z,100320.00
2023-01-22T04:18:04.713Z,100321.00
2023-01-22T04:21:01.742Z,100335.00
2023-01-22T04:23:41.375Z,100336.00
2023-01-22T04:26:09.306Z,100335.00
2023-01-22T04:28:38.609Z,100324.00
2023-01-22T04:31:08.641Z,100320.00
2023-01-22T04:33:43.776Z,100336.00
2023-01-22T04:36:20.189Z,100346.00
2023-01-22T04:38:48.035Z,100342.00
2023-01-22T04:41:15.925Z,100326.00
2023-01-22T04:43:45.752Z,100342.00
2023-01-22T04:46:13.999Z,100345.00
2023-01-22T04:48:42.380Z,100342.00
2023-01-22T04:51:10.893Z,100342.00
2023-01-22T04:53:39.499Z,100347.00
2023-01-22T04:56:08.955Z,100343.00
2023-01-22T04:58:36.861Z,100355.00
2023-01-22T05:01:06.976Z,100348.00
2023-01-22T05:03:34.979Z,100351.00
2023-01-22T05:06:04.896Z,100350.00
2023-01-22T05:08:35.146Z,100347.00
2023-01-22T05:11:04.651Z,100351.00
2023-01-22T05:13:40.072Z,100355.00
2023-01-22T05:16:10.993Z,100359.00
2023-01-22T05:18:39.094Z,100357.00
2023-01-22T05:21:07.257Z,100369.00
2023-01-22T05:23:37.300Z,100370.00
2023-01-22T05:26:05.289Z,100371.00
2023-01-22T05:28:41.525Z,100374.00
2023-01-22T05:31:19.736Z,100375.00
2023-01-22T05:33:59.748Z,100375.00
2023-01-22T05:36:28.916Z,100378.00
2023-01-22T05:39:00.845Z,100366.00
2023-01-22T05:41:29.725Z,100376.00
2023-01-22T05:43:57.994Z,100373.00
2023-01-22T05:46:30.869Z,100377.00
2023-01-22T05:49:17.445Z,100381.00
2023-01-22T05:51:45.692Z,100377.00
2023-01-22T05:54:14.697Z,100385.00
2023-01-22T05:56:44.228Z,100380.00
2023-01-22T05:59:13.168Z,100377.00
2023-01-22T06:01:43.549Z,100394.00
2023-01-22T06:04:11.563Z,100398.00
2023-01-22T06:06:39.549Z,100407.00
2023-01-22T06:09:07.971Z,100399.00
2023-01-22T06:11:38.612Z,100395.00
2023-01-22T06:14:06.985Z,100392.00
2023-01-22T06:16:35.166Z,100405.00
2023-01-22T06:19:11.254Z,100398.00
2023-01-22T06:21:51.494Z,100400.00
2023-01-22T06:24:22.461Z,100403.00
2023-01-22T06:26:50.303Z,100398.00
2023-01-22T06:29:20.083Z,100409.00
2023-01-22T06:31:49.181Z,100401.00
2023-01-22T06:34:20.969Z,100409.00
2023-01-22T06:36:48.908Z,100410.00
2023-01-22T06:39:18.653Z,100419.00
2023-01-22T06:41:58.591Z,100415.00
2023-01-22T06:44:26.612Z,100429.00
2023-01-22T06:46:54.605Z,100425.00
2023-01-22T06:49:27.590Z,100433.00
2023-01-22T06:51:55.970Z,100435.00
2023-01-22T06:54:24.506Z,100449.00
2023-01-22T06:56:52.621Z,100448.00
2023-01-22T06:59:23.418Z,100451.00
2023-01-22T07:01:52.538Z,100464.00
2023-01-22T07:04:20.547Z,100472.00
2023-01-22T07:06:50.729Z,100473.00
2023-01-22T07:09:18.596Z,100471.00
2023-01-22T07:11:46.496Z,100472.00
2023-01-22T07:14:14.352Z,100472.00
2023-01-22T07:16:42.205Z,100471.00
2023-01-22T07:19:10.067Z,100463.00
2023-01-22T07:21:37.914Z,100468.00
2023-01-22T07:24:07.859Z,100478.00
2023-01-22T07:26:36.208Z,100470.00
2023-01-22T07:29:04.059Z,100473.00
2023-01-22T07:31:32.209Z,100479.00
2023-01-22T07:34:00.120Z,100474.00
2023-01-22T07:36:28.004Z,100481.00
2023-01-22T07:38:56.194Z,100478.00
2023-01-22T07:41:26.486Z,100477.00
2023-01-22T07:43:56.965Z,100489.00
2023-01-22T07:46:25.106Z,100492.00
2023-01-22T07:48:53.022Z,100492.00
2023-01-22T07:51:21.054Z,100489.00
2023-01-22T07:53:48.945Z,100494.00
2023-01-22T07:56:18.938Z,100494.00
2023-01-22T07:58:48.251Z,100503.00
2023-01-22T08:01:17.620Z,100510.00
2023-01-22T08:03:45.508Z,100511.00
2023-01-22T08:06:20.567Z,100513.00
2023-01-22T08:08:48.527Z,100518.00
2023-01-22T08:11:16.726Z,100520.00
2023-01-22T08:13:44.627Z,100512.00
2023-01-22T08:16:13.896Z,100518.00
2023-01-22T08:18:41.901Z,100537.00
2023-01-22T08:21:09.853Z,100530.00
2023-01-22T08:23:37.696Z,100536.00
2023-01-22T08:26:06.128Z,100523.00
2023-01-22T08:28:34.392Z,100531.00
2023-01-22T08:31:04.366Z,100521.00
2023-01-22T08:33:34.860Z,100528.00
2023-01-22T08:36:02.785Z,100532.00
2023-01-22T08:38:30.714Z,100542.00
2023-01-22T08:40:58.648Z,100527.00
2023-01-22T08:43:26.517Z,100549.00
2023-01-22T08:45:54.464Z,100552.00
2023-01-22T08:48:22.456Z,100545.00
2023-01-22T08:50:51.670Z,100548.00
2023-01-22T08:53:19.672Z,100557.00
2023-01-22T08:55:50.844Z,100553.00
2023-01-22T08:58:20.350Z,100552.00
2023-01-22T09:00:48.283Z,100549.00
2023-01-22T09:03:16.203Z,100560.00
2023-01-22T09:05:44.146Z,100563.00
2023-01-22T09:08:13.694Z,100566.00
2023-01-22T09:10:41.853Z,100576.00
2023-01-22T09:13:10.488Z,100570.00
2023-01-22T09:15:39.305Z,100575.00
2023-01-22T09:18:07.300Z,100566.00
2023-01-22T09:20:35.209Z,100580.00
2023-01-22T09:23:03.112Z,100586.00
2023-01-22T09:25:32.416Z,100579.00
2023-01-22T09:28:00.880Z,100563.00
2023-01-22T09:30:31.293Z,100577.00
2023-01-22T09:33:00.481Z,100590.00
2023-01-22T09:35:29.702Z,100595.00
2023-01-22T09:37:58.366Z,100596.00
2023-01-22T09:40:30.285Z,100588.00
2023-01-22T09:43:06.391Z,100589.00
2023-01-22T09:45:39.972Z,100601.00
2023-01-22T09:48:15.485Z,100579.00
2023-01-22T09:50:44.160Z,100588.00
2023-01-22T09:53:18.127Z,100583.00
2023-01-22T09:55:49.207Z,100579.00
2023-01-22T09:58:22.276Z,100581.00
2023-01-22T10:00:53.681Z,100581.00
2023-01-22T10:03:27.259Z,100588.00
2023-01-22T10:06:00.679Z,100587.00
2023-01-22T10:08:35.237Z,100587.00
2023-01-22T10:11:05.868Z,100579.00
2023-01-22T10:13:38.004Z,100577.00
2023-01-22T10:16:07.632Z,100586.00
2023-01-22T10:18:44.782Z,100593.00
2023-01-22T10:21:20.734Z,100586.00
2023-01-22T10:23:50.313Z,100582.00
2023-01-22T10:26:24.948Z,100581.00
2023-01-22T10:28:59.955Z,100582.00
2023-01-22T10:31:31.459Z,100588.00
2023-01-22T10:34:02.237Z,100588.00
2023-01-22T10:36:32.298Z,100598.00
2023-01-22T10:39:11.749Z,100606.00
2023-01-22T10:41:40.223Z,100604.00
2023-01-22T10:44:21.911Z,100607.00
2023-01-22T10:46:51.003Z,100612.00
2023-01-22T10:49:22.033Z,100600.00
2023-01-22T10:51:56.744Z,100603.00
2023-01-22T10:54:31.479Z,100606.00
2023-01-22T10:57:15.769Z,100603.00
2023-01-22T10:59:51.517Z,100605.00
2023-01-22T11:02:24.986Z,100604.00
2023-01-22T11:04:53.442Z,100611.00
2023-01-22T11:07:26.343Z,100605.00
2023-01-22T11:10:04.499Z,100622.00
2023-01-22T11:12:38.867Z,100617.00
2023-01-22T11:15:22.822Z,100626.00
2023-01-22T11:17:53.921Z,100629.00
2023-01-22T11:20:29.267Z,100624.00
2023-01-22T11:23:12.413Z,100624.00
2023-01-22T11:25:46.818Z,100632.00
2023-01-22T11:28:31.870Z,100626.00
2023-01-22T11:31:25.623Z,100616.00
2023-01-22T11:34:36.648Z,100624.00
2023-01-22T11:37:14.287Z,100619.00
2023-01-22T11:40:11.252Z,100615.00
2023-01-22T11:43:02.265Z,100612.00
2023-01-22T11:45:52.693Z,100610.00
2023-01-22T11:48:41.106Z,100608.00
2023-01-22T11:51:23.412Z,100609.00
2023-01-22T11:54:23.545Z,100603.00
2023-01-22T11:57:10.374Z,100611.00
2023-01-22T11:59:58.333Z,100617.00
2023-01-22T12:03:00.981Z,100612.00
2023-01-22T12:05:45.218Z,100602.00
2023-01-22T12:08:33.326Z,100611.00
2023-01-22T12:11:30.929Z,100613.00
2023-01-22T12:14:42.127Z,100619.00
2023-01-22T12:17:29.279Z,100623.00
2023-01-22T12:20:25.397Z,100618.00
2023-01-22T12:23:03.198Z,100609.00
2023-01-22T12:25:41.964Z,100603.00
2023-01-22T12:28:18.136Z,100600.00
2023-01-22T12:31:01.020Z,100605.00
2023-01-22T12:33:34.308Z,100600.00
2023-01-22T12:36:06.313Z,100597.00
2023-01-22T12:38:50.728Z,100602.00
2023-01-22T12:41:53.936Z,100591.00
2023-01-22T12:44:35.558Z,100602.00
2023-01-22T12:47:16.779Z,100606.00
2023-01-22T12:49:50.651Z,100599.00
2023-01-22T12:52:32.415Z,100617.00
2023-01-22T12:55:04.343Z,100606.00
2023-01-22T12:57:41.738Z,100613.00
2023-01-22T13:00:26.478Z,100604.00
2023-01-22T13:02:54.426Z,100609.00
2023-01-22T13:05:40.666Z,100620.00
2023-01-22T13:08:37.388Z,100625.00
2023-01-22T13:11:10.402Z,100621.00
2023-01-22T13:13:47.761Z,100609.00
2023-01-22T13:16:23.885Z,100616.00
2023-01-22T13:18:55.059Z,100627.00
2023-01-22T13:21:29.536Z,100617.00
2023-01-22T13:24:02.844Z,100623.00
2023-01-22T13:26:35.791Z,100628.00
2023-01-22T13:29:18.282Z,100632.00
2023-01-22T13:31:53.377Z,100621.00
2023-01-22T13:34:21.327Z,100647.00
2023-01-22T13:36:52.210Z,100638.00
2023-01-22T13:39:22.964Z,100626.00
2023-01-22T13:41:55.365Z,100639.00
2023-01-22T13:44:27.622Z,100650.00
2023-01-22T13:46:56.086Z,100646.00
2023-01-22T13:49:27.982Z,100647.00
2023-01-22T13:51:58.964Z,100647.00
2023-01-22T13:54:34.833Z,100648.00
2023-01-22T13:57:05.429Z,100647.00
2023-01-22T13:59:35.168Z,100642.00
2023-01-22T14:02:21.901Z,100630.00
2023-01-22T14:04:50.714Z,100643.00
2023-01-22T14:07:27.601Z,100632.00
2023-01-22T14:09:56.988Z,100643.00
2023-01-22T14:12:30.236Z,100657.00
2023-01-22T14:14:58.329Z,100647.00
2023-01-22T14:17:29.944Z,100639.00
2023-01-22T14:19:58.729Z,100653.00
2023-01-22T14:22:27.146Z,100659.00
2023-01-22T14:24:55.084Z,100655.00
2023-01-22T14:27:27.028Z,100658.00
2023-01-22T14:29:56.455Z,100656.00
2023-01-22T14:32:24.475Z,100662.00
2023-01-22T14:34:52.313Z,100653.00
2023-01-22T14:37:22.011Z,100659.00
2023-01-22T14:39:49.958Z,100660.00
2023-01-22T14:42:17.838Z,100651.00
2023-01-22T14:44:46.992Z,100650.00
2023-01-22T14:47:14.795Z,100656.00
2023-01-22T14:49:42.646Z,100665.00
2023-01-22T14:52:10.513Z,100655.00
2023-01-22T14:54:38.442Z,100659.00
2023-01-22T14:57:06.279Z,100655.00
2023-01-22T14:59:34.132Z,100665.00
2023-01-22T15:02:03.720Z,100662.00
2023-01-22T15:04:31.842Z,100659.00
2023-01-22T15:06:59.685Z,100656.00
2023-01-22T15:09:27.600Z,100653.00
2023-01-22T15:11:55.472Z,100655.00
2023-01-22T15:14:23.602Z,100657.00
2023-01-22T15:16:51.662Z,100659.00
2023-01-22T15:19:24.009Z,100668.00
2023-01-22T15:21:51.857Z,100664.00
2023-01-22T15:24:19.725Z,100662.00
2023-01-22T15:26:47.664Z,100665.00
2023-01-22T15:29:16.243Z,100675.00
2023-01-22T15:31:44.245Z,100681.00
2023-01-22T15:34:12.196Z,100662.00
2023-01-22T15:36:41.422Z,100665.00
2023-01-22T15:39:09.352Z,100681.00
2023-01-22T15:41:38.511Z,100681.00
2023-01-22T15:44:08.289Z,100684.00
2023-01-22T15:46:39.417Z,100677.00
2023-01-22T15:49:10.302Z,100689.00
2023-01-22T15:51:38.291Z,100689.00
2023-01-22T15:54:09.758Z,100680.00
2023-01-22T15:56:39.109Z,100668.00
2023-01-22T15:59:07.360Z,100694.00
2023-01-22T16:01:35.635Z,100692.00
2023-01-22T16:04:03.917Z,100681.00
2023-01-22T16:06:34.469Z,100689.00
2023-01-22T16:09:05.755Z,100683.00
2023-01-22T16:11:36.032Z,100681.00
2023-01-22T16:14:04.593Z,100695.00
2023-01-22T16:16:36.251Z,100696.00
2023-01-22T16:19:07.490Z,100690.00
2023-01-22T16:21:37.083Z,100710.00
2023-01-22T16:24:05.943Z,100694.00
2023-01-22T16:26:36.561Z,100702.00
2023-01-22T16:29:07.743Z,100705.00
2023-01-22T16:31:37.443Z,100708.00
2023-01-22T16:34:11.835Z,100720.00
2023-01-22T16:36:40.869Z,100697.00
2023-01-22T16:39:10.515Z,100714.00
2023-01-22T16:41:39.724Z,100716.00
2023-01-22T16:44:10.910Z,100716.00
2023-01-22T16:46:42.400Z,100720.00
2023-01-22T16:49:15.473Z,100732.00
2023-01-22T16:51:46.924Z,100739.00
2023-01-22T16:54:23.421Z,100742.00
2023-01-22T16:56:52.679Z,100730.00
2023-01-22T16:59:20.597Z,100744.00
2023-01-22T17:01:48.945Z,100743.00
2023-01-22T17:04:16.964Z,100739.00
2023-01-22T17:06:48.978Z,100740.00
2023-01-22T17:09:20.367Z,100732.00
2023-01-22T17:11:53.389Z,100737.00
2023-01-22T17:14:26.392Z,100741.00
2023-01-22T17:16:54.726Z,100748.00
2023-01-22T17:19:22.902Z,100739.00
2023-01-22T17:21:54.536Z,100747.00
2023-01-22T17:24:23.391Z,100754.00
2023-01-22T17:26:53.167Z,100760.00
2023-01-22T17:29:22.631Z,100756.00
2023-01-22T17:31:50.889Z,100757.00
2023-01-22T17:34:18.993Z,100760.00
2023-01-22T17:36:46.903Z,100763.00
2023-01-22T17:39:17.029Z,100762.00
2023-01-22T17:41:45.536Z,100765.00
2023-01-22T17:44:14.935Z,100765.00
2023-01-22T17:46:43.382Z,100760.00
2023-01-22T17:49:11.472Z,100766.00
2023-01-22T17:51:39.557Z,100756.00
2023-01-22T17:54:07.849Z,100771.00
2023-01-22T17:56:42.957Z,100774.00
2023-01-22T17:59:14.337Z,100763.00
2023-01-22T18:01:42.704Z,100762.00
2023-01-22T18:04:13.296Z,100782.00
2023-01-22T18:06:43.386Z,100778.00
2023-01-22T18:09:13.292Z,100783.00
2023-01-22T18:11:42.102Z,100788.00
2023-01-22T18:14:18.136Z,100785.00
2023-01-22T18:16:46.081Z,100794.00
2023-01-22T18:19:14.304Z,100800.00
2023-01-22T18:21:42.518Z,100799.00
2023-01-22T18:24:12.747Z,100803.00
2023-01-22T18:26:40.976Z,100789.00
2023-01-22T18:29:09.796Z,100798.00
2023-01-22T18:31:39.747Z,100803.00
2023-01-22T18:34:16.105Z,100806.00
2023-01-22T18:36:44.221Z,100808.00
2023-01-22T18:39:15.817Z,100810.00
2023-01-22T18:41:44.996Z,100823.00
2023-01-22T18:44:14.781Z,100816.00
2023-01-22T18:46:47.405Z,100817.00
2023-01-22T18:49:19.393Z,100829.00
2023-01-22T18:51:47.899Z,100834.00
2023-01-22T18:54:17.056Z,100829.00
2023-01-22T18:56:45.274Z,100834.00
2023-01-22T18:59:13.256Z,100843.00
2023-01-22T19:01:49.911Z,100844.00
2023-01-22T19:04:21.545Z,100837.00
2023-01-22T19:06:53.150Z,100844.00
2023-01-22T19:09:21.651Z,100837.00
2023-01-22T19:11:52.225Z,100824.00
2023-01-22T19:14:22.060Z,100838.00
2023-01-22T19:16:54.797Z,100838.00
2023-01-22T19:19:23.853Z,100844.00
2023-01-22T19:21:55.274Z,100834.00
2023-01-22T19:24:26.677Z,100845.00
2023-01-22T19:26:56.008Z,100846.00
2023-01-22T19:29:25.337Z,100853.00
2023-01-22T19:31:56.906Z,100848.00
2023-01-22T19:34:26.296Z,100848.00
2023-01-22T19:36:56.902Z,100851.00
2023-01-22T19:39:26.233Z,100854.00
2023-01-22T19:41:54.199Z,100858.00
2023-01-22T19:44:22.148Z,100864.00
2023-01-22T19:46:50.087Z,100867.00
2023-01-22T19:49:20.274Z,100861.00
2023-01-22T19:51:48.682Z,100863.00
2023-01-22T19:54:17.569Z,100869.00
2023-01-22T19:56:45.905Z,100869.00
2023-01-22T19:59:16.425Z,100878.00
2023-01-22T20:01:46.436Z,100876.00
2023-01-22T20:04:22.602Z,100885.00
2023-01-22T20:06:55.460Z,100878.00
2023-01-22T20:09:23.513Z,100884.00
2023-01-22T20:11:53.778Z,100893.00
2023-01-22T20:14:22.996Z,100889.00
2023-01-22T20:16:51.381Z,100885.00
2023-01-22T20:19:20.532Z,100889.00
2023-01-22T20:21:48.492Z,100893.00
2023-01-22T20:24:16.577Z,100893.00
2023-01-22T20:26:44.599Z,100894.00
2023-01-22T20:29:13.099Z,100892.00
2023-01-22T20:31:41.040Z,100889.00
2023-01-22T20:34:09.007Z,100893.00
2023-01-22T20:36:38.217Z,100886.00
2023-01-22T20:39:06.120Z,100882.00
2023-01-22T20:41:34.358Z,100889.00
2023-01-22T20:44:02.449Z,100882.00
2023-01-22T20:46:30.796Z,100888.00
2023-01-22T20:48:59.463Z,100897.00
2023-01-22T20:51:29.817Z,100893.00
2023-01-22T20:53:59.070Z,100894.00
2023-01-22T20:56:31.544Z,100894.00
2023-01-22T20:59:02.469Z,100885.00
2023-01-22T21:01:31.100Z,100897.00
2023-01-22T21:04:00.880Z,100903.00
2023-01-22T21:06:31.533Z,100917.00
2023-01-22T21:09:01.876Z,100906.00
2023-01-22T21:11:32.748Z,100912.00
2023-01-22T21:14:04.443Z,100912.00
2023-01-22T21:16:35.883Z,100915.00
2023-01-22T21:19:07.751Z,100922.00
2023-01-22T21:21:36.747Z,100914.00
2023-01-22T21:24:06.827Z,100926.00
2023-01-22T21:26:34.745Z,100929.00
2023-01-22T21:29:05.564Z,100934.00
2023-01-22T21:31:33.583Z,100937.00
2023-01-22T21:34:04.036Z,100932.00
2023-01-22T21:36:35.450Z,100929.00
2023-01-22T21:39:06.660Z,100953.00
2023-01-22T21:41:35.387Z,100948.00
2023-01-22T21:44:21.016Z,100955.00
2023-01-22T21:46:49.697Z,100957.00
2023-01-22T21:49:22.695Z,100954.00
2023-01-22T21:51:54.314Z,100972.00
2023-01-22T21:54:26.875Z,100960.00
2023-01-22T21:56:56.039Z,100951.00
2023-01-22T21:59:24.165Z,100973.00
2023-01-22T22:01:54.349Z,100972.00
2023-01-22T22:04:24.475Z,100970.00
2023-01-22T22:06:53.487Z,100981.00
2023-01-22T22:09:25.931Z,100982.00
2023-01-22T22:11:57.373Z,100970.00
2023-01-22T22:14:26.236Z,100957.00
2023-01-22T22:16:55.108Z,100980.00
2023-01-22T22:19:24.559Z,100984.00
2023-01-22T22:21:52.894Z,100985.00
2023-01-22T22:24:22.922Z,100985.00
2023-01-22T22:26:51.018Z,100986.00
2023-01-22T22:29:18.997Z,100993.00
2023-01-22T22:31:46.836Z,100998.00
2023-01-22T22:34:14.798Z,100997.00
2023-01-22T22:36:42.666Z,100990.00
2023-01-22T22:39:11.297Z,100998.00
2023-01-22T22:41:40.706Z,101003.00
2023-01-22T22:44:10.323Z,101001.00
2023-01-22T22:46:40.433Z,101000.00
2023-01-22T22:49:12.259Z,101010.00
2023-01-22T22:51:43.307Z,101006.00
2023-01-22T22:54:15.834Z,101004.00
2023-01-22T22:56:46.058Z,101011.00
2023-01-22T22:59:15.321Z,101004.00
2023-01-22T23:01:43.247Z,101000.00
2023-01-22T23:04:13.544Z,101015.00
2023-01-22T23:06:45.321Z,101012.00
2023-01-22T23:09:16.089Z,101002.00
2023-01-22T23:11:45.418Z,101000.00
2023-01-22T23:14:14.064Z,101014.00
2023-01-22T23:16:43.950Z,101016.00
2023-01-22T23:19:16.424Z,101022.00
2023-01-22T23:21:45.870Z,101017.00
2023-01-22T23:24:15.610Z,101000.00
2023-01-22T23:26:46.868Z,101018.00
2023-01-22T23:29:18.518Z,101027.00
2023-01-22T23:31:46.627Z,101024.00
2023-01-22T23:34:17.294Z,101022.00
2023-01-22T23:36:47.692Z,101019.00
2023-01-22T23:39:18.870Z,101025.00
2023-01-22T23:41:48.359Z,101024.00
2023-01-22T23:44:16.285Z,101038.00
2023-01-22T23:46:44.785Z,101044.00
2023-01-22T23:49:12.697Z,101047.00
2023-01-22T23:51:42.125Z,101041.00
2023-01-22T23:54:10.147Z,101046.00
2023-01-22T23:56:38.642Z,101049.00
2023-01-22T23:59:07.804Z,101045.00
